CDT,Max TemperatureF,Mean TemperatureF,Min TemperatureF,Max Dew PointF,MeanDew PointF,Min DewpointF,Max Humidity, Mean Humidity, Min Humidity, Max Sea Level PressureIn, Mean Sea Level PressureIn, Min Sea Level PressureIn, Max VisibilityMiles, Mean VisibilityMiles, Min VisibilityMiles, Max Wind SpeedMPH, Mean Wind SpeedMPH, Max Gust SpeedMPH,PrecipitationIn, CloudCover, Events, WindDirDegrees
2013-5-1,83,69,54,57,54,50,86,60,34,30.13,30.08,29.99,10,9,4,18,7,24,0.00,0,Fog,147
2013-5-2,80,64,48,63,56,45,87,71,54,30.13,30.08,30.03,10,8,2,25,9,32,0.24,5,Rain-Thunderstorm,34
2013-5-3,72,59,46,61,52,43,93,77,61,30.04,29.94,29.83,10,9,3,29,13,40,0.06,5,Rain,84
2013-5-4,63,59,54,57,54,52,93,83,72,30.01,29.95,29.86,10,10,6,22,11,26,0.13,7,Rain,112
2013-5-5,66,60,53,56,53,51,100,86,72,30.01,29.97,29.91,10,9,3,18,9,23,0.09,7,Rain,52
2013-5-6,70,62,54,56,52,48,93,75,57,29.99,29.96,29.92,10,10,10,15,8,20,0.00,6,,40
2013-5-7,76,65,54,57,52,45,86,66,45,30.03,29.99,29.96,10,10,10,14,5,17,0.00,3,,22
2013-5-8,81,68,54,56,51,47,83,58,32,30.04,29.99,29.96,10,10,2,10,4,21,0.00,0,,306
2013-5-9,68,63,57,61,60,54,93,83,73,30.02,29.93,29.84,10,7,1,21,9,26,0.97,5,Rain-Thunderstorm,175
2013-5-10,66,57,48,59,55,45,90,82,73,29.98,29.88,29.82,10,8,3,16,10,20,T,6,,299
2013-5-11,66,53,39,54,43,30,93,64,34,30.10,29.98,29.91,10,8,4,31,14,38,0.00,5,,290
2013-5-12,58,47,35,33,30,23,82,54,25,30.18,30.14,30.10,10,10,10,23,11,39,0.00,0,,292
2013-5-13,68,52,36,41,33,29,82,53,24,30.22,30.15,30.08,10,10,10,16,8,24,T,0,,261
2013-5-14,88,71,53,59,51,37,61,49,36,30.05,29.86,29.76,10,10,10,24,16,32,0.00,0,,196
2013-5-15,88,77,65,63,56,52,68,52,36,29.87,29.83,29.78,10,10,10,29,14,35,0.00,1,Thunderstorm,238
2013-5-16,83,73,63,63,57,51,87,61,34,29.96,29.90,29.83,10,10,9,17,7,21,T,3,Rain,218
2013-5-17,84,71,58,62,59,54,100,69,37,30.01,29.98,29.95,10,7,0,18,8,28,0.00,1,Fog,145
2013-5-18,82,71,59,63,60,57,97,71,45,30.04,30.00,29.93,10,7,2,14,7,21,0.00,4,,111
2013-5-19,91,75,58,70,64,57,93,67,41,29.95,29.88,29.78,10,7,2,22,11,29,0.00,1,,143
2013-5-20,91,80,69,67,63,56,84,60,35,29.89,29.81,29.74,10,10,9,25,15,39,0.00,2,Rain-Thunderstorm,197
2013-5-21,82,73,64,67,63,60,93,74,54,29.84,29.77,29.70,10,9,1,30,16,36,0.11,4,Rain-Thunderstorm,209
2013-5-22,77,69,61,63,60,56,87,71,54,29.82,29.73,29.66,10,9,0,28,13,35,0.35,6,Rain,231
2013-5-23,61,53,44,57,51,37,87,77,66,30.26,29.99,29.81,10,9,2,25,14,31,0.01,6,Rain,330
2013-5-24,69,55,40,38,35,33,79,53,27,30.41,30.34,30.27,10,10,10,16,9,21,0.00,0,,30
2013-5-25,62,54,45,50,41,32,89,66,42,30.39,30.32,30.25,10,9,4,17,9,23,0.36,5,Rain,85
2013-5-26,66,59,51,57,52,46,89,81,73,30.28,30.20,30.06,10,10,6,21,13,26,0.07,6,Rain,109
2013-5-27,79,69,59,68,61,55,93,80,67,30.11,29.94,29.83,10,8,0,29,12,35,0.31,6,Fog-Rain-Thunderstorm,179
2013-5-28,82,73,64,69,65,60,87,77,67,29.91,29.86,29.81,10,10,10,29,15,37,T,2,,192
2013-5-29,88,77,65,66,63,59,87,65,43,29.96,29.94,29.90,10,10,10,26,16,32,0.00,2,,185
2013-5-30,90,79,67,67,65,62,79,61,43,29.96,29.92,29.85,10,9,2,39,21,62,0.00,4,Rain-Thunderstorm,178
2013-5-31,78,71,64,70,65,60,87,81,74,29.92,29.86,29.78,10,9,1,37,16,47,0.85,6,Rain-Thunderstorm,184